createdAt,value
2023-03-17T00:01:36.025Z,-1.53
2023-03-17T00:04:03.768Z,-1.52
2023-03-17T00:06:32.780Z,-1.53
2023-03-17T00:09:00.446Z,-1.51
2023-03-17T00:11:29.516Z,-1.54
2023-03-17T00:13:57.595Z,-1.63
2023-03-17T00:16:27.091Z,-1.59
2023-03-17T00:18:55.500Z,-1.61
2023-03-17T00:21:29.090Z,-1.66
2023-03-17T00:23:57.215Z,-1.68
2023-03-17T00:26:25.161Z,-1.70
2023-03-17T00:28:55.145Z,-1.72
2023-03-17T00:31:24.408Z,-1.78
2023-03-17T00:33:53.945Z,-1.79
2023-03-17T00:36:23.953Z,-1.82
2023-03-17T00:38:52.625Z,-1.82
2023-03-17T00:41:20.778Z,-1.97
2023-03-17T00:43:48.448Z,-1.87
2023-03-17T00:46:19.657Z,-1.91
2023-03-17T00:48:48.591Z,-1.92
2023-03-17T00:51:16.409Z,-1.92
2023-03-17T00:53:44.205Z,-1.94
2023-03-17T00:56:14.453Z,-1.99
2023-03-17T00:58:42.770Z,-2.01
2023-03-17T01:01:10.863Z,-2.00
2023-03-17T01:03:40.114Z,-1.99
2023-03-17T01:06:10.913Z,-2.06
2023-03-17T01:08:39.286Z,-2.10
2023-03-17T01:11:07.353Z,-2.04
2023-03-17T01:13:35.225Z,-2.03
2023-03-17T01:16:02.876Z,-2.08
2023-03-17T01:18:33.487Z,-2.15
2023-03-17T01:21:02.518Z,-2.14
2023-03-17T01:23:30.233Z,-2.15
2023-03-17T01:25:57.818Z,-2.17
2023-03-17T01:28:25.449Z,-2.19
2023-03-17T01:30:53.020Z,-2.21
2023-03-17T01:33:21.082Z,-2.27
2023-03-17T01:35:48.736Z,-2.22
2023-03-17T01:38:17.741Z,-2.24
2023-03-17T01:40:47.205Z,-2.24
2023-03-17T01:43:19.433Z,-2.27
2023-03-17T01:46:27.598Z,-2.26
2023-03-17T01:49:04.232Z,-2.29
2023-03-17T01:51:33.946Z,-2.29
2023-03-17T01:54:06.702Z,-2.28
2023-03-17T01:56:35.162Z,-2.21
2023-03-17T01:59:04.531Z,-2.23
2023-03-17T02:01:38.833Z,-2.22
2023-03-17T02:04:07.354Z,-2.28
2023-03-17T02:06:37.021Z,-2.13
2023-03-17T02:09:10.012Z,-2.09
2023-03-17T02:11:37.863Z,-2.10
2023-03-17T02:14:05.484Z,-2.07
2023-03-17T02:16:33.147Z,-2.06
2023-03-17T02:19:01.486Z,-2.01
2023-03-17T02:21:32.959Z,-2.09
2023-03-17T02:24:02.514Z,-2.04
2023-03-17T02:26:32.516Z,-2.09
2023-03-17T02:29:00.156Z,-2.12
2023-03-17T02:31:28.471Z,-2.23
2023-03-17T02:33:56.252Z,-2.19
2023-03-17T02:36:24.845Z,-2.22
2023-03-17T02:38:53.901Z,-2.27
2023-03-17T02:41:21.838Z,-2.30
2023-03-17T02:43:49.676Z,-2.34
2023-03-17T02:46:17.749Z,-2.55
2023-03-17T02:48:46.384Z,-2.51
2023-03-17T02:51:14.302Z,-2.56
2023-03-17T02:53:41.954Z,-2.64
2023-03-17T02:56:11.020Z,-2.62
2023-03-17T02:58:38.734Z,-2.69
2023-03-17T03:01:06.694Z,-2.75
2023-03-17T03:03:34.434Z,-2.73
2023-03-17T03:06:03.136Z,-2.74
2023-03-17T03:08:30.971Z,-2.78
2023-03-17T03:11:00.336Z,-2.79
2023-03-17T03:13:29.360Z,-2.79
2023-03-17T03:15:57.497Z,-2.79
2023-03-17T03:18:25.133Z,-2.80
2023-03-17T03:20:52.835Z,-2.90
2023-03-17T03:23:20.421Z,-2.89
2023-03-17T03:25:48.344Z,-2.86
2023-03-17T03:28:15.947Z,-2.82
2023-03-17T03:30:46.900Z,-2.82
2023-03-17T03:33:15.425Z,-2.80
2023-03-17T03:35:44.173Z,-2.82
2023-03-17T03:38:12.390Z,-2.75
2023-03-17T03:40:40.402Z,-2.76
2023-03-17T03:43:22.070Z,-2.71
2023-03-17T03:45:52.475Z,-2.80
2023-03-17T03:48:20.446Z,-2.75
2023-03-17T03:50:48.128Z,-2.72
2023-03-17T03:53:16.200Z,-2.74
2023-03-17T03:55:43.775Z,-2.80
2023-03-17T03:58:11.411Z,-2.89
2023-03-17T04:00:39.068Z,-2.94
2023-03-17T04:03:08.180Z,-2.94
2023-03-17T04:05:35.795Z,-2.93
2023-03-17T04:08:03.447Z,-2.91
2023-03-17T04:10:31.872Z,-2.93
2023-03-17T04:12:59.730Z,-2.94
2023-03-17T04:15:27.402Z,-3.02
2023-03-17T04:17:55.604Z,-3.00
2023-03-17T04:20:24.541Z,-3.02
2023-03-17T04:22:52.461Z,-3.02
2023-03-17T04:25:20.307Z,-3.02
2023-03-17T04:27:48.010Z,-3.00
2023-03-17T04:30:17.085Z,-2.94
2023-03-17T04:32:46.361Z,-2.93
2023-03-17T04:35:15.567Z,-2.84
2023-03-17T04:37:44.938Z,-2.87
2023-03-17T04:40:14.527Z,-2.86
2023-03-17T04:42:42.170Z,-2.77
2023-03-17T04:45:12.437Z,-2.77
2023-03-17T04:47:40.575Z,-2.67
2023-03-17T04:50:09.109Z,-2.64
2023-03-17T04:52:37.460Z,-2.64
2023-03-17T04:55:08.294Z,-2.57
2023-03-17T04:57:36.115Z,-2.64
2023-03-17T05:00:04.515Z,-2.71
2023-03-17T05:02:32.237Z,-2.81
2023-03-17T05:04:59.903Z,-2.81
2023-03-17T05:07:27.567Z,-2.83
2023-03-17T05:09:55.604Z,-2.88
2023-03-17T05:12:24.612Z,-2.88
2023-03-17T05:14:52.236Z,-2.86
2023-03-17T05:17:19.847Z,-2.90
2023-03-17T05:19:47.574Z,-2.80
2023-03-17T05:22:15.553Z,-2.83
2023-03-17T05:24:43.433Z,-2.76
2023-03-17T05:27:11.775Z,-2.77
2023-03-17T05:29:41.021Z,-2.79
2023-03-17T05:32:08.666Z,-2.80
2023-03-17T05:34:36.307Z,-2.80
2023-03-17T05:37:03.934Z,-2.81
2023-03-17T05:39:31.622Z,-2.84
2023-03-17T05:41:59.214Z,-2.80
2023-03-17T05:44:26.773Z,-2.78
2023-03-17T05:46:56.213Z,-2.68
2023-03-17T05:49:24.497Z,-2.54
2023-03-17T05:51:52.158Z,-2.46
2023-03-17T05:54:19.788Z,-2.42
2023-03-17T05:56:47.479Z,-2.30
2023-03-17T05:59:16.899Z,-2.29
2023-03-17T06:01:44.578Z,-2.25
2023-03-17T06:04:13.744Z,-2.24
2023-03-17T06:06:41.400Z,-2.20
2023-03-17T06:09:09.435Z,-2.08
2023-03-17T06:11:37.014Z,-2.00
2023-03-17T06:14:04.949Z,-2.01
2023-03-17T06:16:33.238Z,-1.94
2023-03-17T06:19:00.952Z,-1.94
2023-03-17T06:21:30.086Z,-1.85
2023-03-17T06:23:57.727Z,-1.86
2023-03-17T06:26:25.365Z,-1.77
2023-03-17T06:28:52.973Z,-1.77
2023-03-17T06:31:20.866Z,-1.77
2023-03-17T06:33:48.874Z,-1.70
2023-03-17T06:36:17.029Z,-1.80
2023-03-17T06:38:46.685Z,-1.56
2023-03-17T06:41:14.925Z,-1.53
2023-03-17T06:43:42.603Z,-1.51
2023-03-17T06:46:10.552Z,-1.38
2023-03-17T06:48:38.283Z,-1.29
2023-03-17T06:51:06.598Z,-1.14
2023-03-17T06:53:34.227Z,-1.12
2023-03-17T06:56:05.021Z,-1.14
2023-03-17T06:58:33.174Z,-1.06
2023-03-17T07:01:00.816Z,-0.94
2023-03-17T07:03:28.648Z,-0.71
2023-03-17T07:05:56.619Z,-0.53
2023-03-17T07:08:24.210Z,-0.31
2023-03-17T07:10:52.686Z,-0.18
2023-03-17T07:13:22.335Z,0.10
2023-03-17T07:15:50.034Z,0.35
2023-03-17T07:18:18.840Z,0.56
2023-03-17T07:20:46.869Z,0.88
2023-03-17T07:23:16.133Z,0.98
2023-03-17T07:25:45.633Z,1.23
2023-03-17T07:28:13.251Z,1.39
2023-03-17T07:30:46.609Z,1.66
2023-03-17T07:33:14.665Z,1.70
2023-03-17T07:35:43.728Z,1.67
2023-03-17T07:38:12.239Z,1.54
2023-03-17T07:40:39.877Z,1.72
2023-03-17T07:43:08.286Z,1.80
2023-03-17T07:45:36.730Z,1.85
2023-03-17T07:48:07.394Z,2.01
2023-03-17T07:50:35.772Z,2.28
2023-03-17T07:53:04.628Z,2.41
2023-03-17T07:55:32.943Z,2.60
2023-03-17T07:58:00.851Z,2.57
2023-03-17T08:00:29.125Z,2.78
2023-03-17T08:03:09.366Z,2.89
2023-03-17T08:05:39.630Z,3.03
2023-03-17T08:08:07.511Z,3.13
2023-03-17T08:10:35.895Z,3.40
2023-03-17T08:13:03.948Z,3.46
2023-03-17T08:15:31.860Z,3.61
2023-03-17T08:17:59.612Z,3.77
2023-03-17T08:20:27.237Z,3.92
2023-03-17T08:22:57.195Z,3.98
2023-03-17T08:25:25.076Z,4.05
2023-03-17T08:27:52.837Z,4.29
2023-03-17T08:30:21.611Z,4.37
2023-03-17T08:32:49.549Z,4.76
2023-03-17T08:35:18.621Z,5.06
2023-03-17T08:37:47.516Z,5.20
2023-03-17T08:40:19.616Z,5.34
2023-03-17T08:42:48.557Z,5.63
2023-03-17T08:45:18.280Z,5.63
2023-03-17T08:47:46.164Z,5.76
2023-03-17T08:50:18.290Z,6.04
2023-03-17T08:52:46.199Z,5.76
2023-03-17T08:55:16.282Z,6.04
2023-03-17T08:57:44.784Z,6.32
2023-03-17T09:00:14.477Z,6.27
2023-03-17T09:02:43.992Z,6.51
2023-03-17T09:05:13.735Z,6.81
2023-03-17T09:07:41.777Z,6.90
2023-03-17T09:10:10.933Z,7.00
2023-03-17T09:12:39.874Z,7.13
2023-03-17T09:15:08.757Z,7.52
2023-03-17T09:17:36.333Z,7.46
2023-03-17T09:20:06.778Z,7.71
2023-03-17T09:22:34.389Z,7.78
2023-03-17T09:25:02.155Z,7.97
2023-03-17T09:27:29.788Z,8.10
2023-03-17T09:29:58.729Z,8.09
2023-03-17T09:32:26.436Z,8.16
2023-03-17T09:34:54.038Z,8.19
2023-03-17T09:37:21.870Z,8.11
2023-03-17T09:39:49.717Z,8.28
2023-03-17T09:42:24.347Z,8.60
2023-03-17T09:45:07.190Z,8.88
2023-03-17T09:47:48.056Z,9.01
2023-03-17T09:50:17.606Z,8.68
2023-03-17T09:52:45.497Z,8.85
2023-03-17T09:55:19.074Z,8.85
2023-03-17T09:57:47.085Z,9.05
2023-03-17T10:00:19.101Z,9.21
2023-03-17T10:02:47.187Z,9.46
2023-03-17T10:05:20.643Z,9.48
2023-03-17T10:07:52.853Z,9.48
2023-03-17T10:10:25.076Z,9.66
2023-03-17T10:12:59.210Z,9.68
2023-03-17T10:15:34.694Z,9.74
2023-03-17T10:18:03.032Z,9.79
2023-03-17T10:20:34.417Z,9.88
2023-03-17T10:23:05.028Z,10.05
2023-03-17T10:25:35.451Z,10.33
2023-03-17T10:28:08.786Z,10.49
2023-03-17T10:30:38.953Z,10.52
2023-03-17T10:33:07.925Z,10.76
2023-03-17T10:35:39.557Z,10.65
2023-03-17T10:38:16.934Z,10.73
2023-03-17T10:40:47.779Z,10.88
2023-03-17T10:43:20.682Z,10.54
2023-03-17T10:45:57.606Z,10.83
2023-03-17T10:48:25.260Z,11.07
2023-03-17T10:50:54.324Z,10.93
2023-03-17T10:53:28.199Z,10.98
2023-03-17T10:55:59.465Z,10.92
2023-03-17T10:58:39.480Z,11.13
2023-03-17T11:01:12.445Z,11.17
2023-03-17T11:03:41.082Z,11.19
2023-03-17T11:06:12.004Z,11.31
2023-03-17T11:08:42.335Z,11.51
2023-03-17T11:11:27.545Z,11.42
2023-03-17T11:14:03.135Z,11.52
2023-03-17T11:16:33.528Z,11.62
2023-03-17T11:19:01.672Z,11.52
2023-03-17T11:21:31.800Z,11.63
2023-03-17T11:24:04.525Z,11.81
2023-03-17T11:26:47.176Z,11.84
2023-03-17T11:29:23.845Z,11.96
2023-03-17T11:31:59.313Z,12.11
2023-03-17T11:34:36.148Z,12.01
2023-03-17T11:37:10.318Z,11.98
2023-03-17T11:39:43.206Z,12.16
2023-03-17T11:42:17.724Z,12.26
2023-03-17T11:45:19.019Z,12.26
2023-03-17T11:48:00.026Z,12.05
2023-03-17T11:50:31.849Z,11.94
2023-03-17T11:53:11.191Z,12.39
2023-03-17T11:55:44.595Z,12.55
2023-03-17T11:58:19.027Z,12.57
2023-03-17T12:00:50.689Z,12.71
2023-03-17T12:03:23.203Z,12.54
2023-03-17T12:05:54.582Z,12.82
2023-03-17T12:08:25.870Z,13.00
2023-03-17T12:10:55.564Z,13.12
2023-03-17T12:13:29.693Z,13.11
2023-03-17T12:16:03.311Z,13.23
2023-03-17T12:18:33.796Z,13.07
2023-03-17T12:21:04.401Z,13.12
2023-03-17T12:23:38.195Z,13.00
2023-03-17T12:26:10.773Z,13.20
2023-03-17T12:28:43.615Z,13.44
2023-03-17T12:31:15.485Z,13.74
2023-03-17T12:33:49.177Z,13.87
2023-03-17T12:36:18.414Z,13.98
2023-03-17T12:38:48.362Z,14.42
2023-03-17T12:41:29.781Z,14.31
2023-03-17T12:44:04.490Z,14.22
2023-03-17T12:46:46.112Z,14.11
2023-03-17T12:49:50.614Z,14.03
2023-03-17T12:52:31.561Z,13.99
2023-03-17T12:55:02.378Z,13.84
2023-03-17T12:57:32.110Z,13.93
2023-03-17T13:00:02.143Z,14.61
2023-03-17T13:02:37.998Z,15.23
2023-03-17T13:05:10.002Z,15.47
2023-03-17T13:07:50.271Z,15.72
2023-03-17T13:10:37.650Z,16.32
2023-03-17T13:13:15.362Z,17.00
2023-03-17T13:16:04.648Z,17.94
2023-03-17T13:18:53.939Z,17.90
2023-03-17T13:21:26.365Z,18.02
2023-03-17T13:24:25.034Z,18.61
2023-03-17T13:26:59.789Z,18.23
2023-03-17T13:29:49.957Z,18.31
2023-03-17T13:32:44.613Z,18.24
2023-03-17T13:35:20.521Z,18.06
2023-03-17T13:38:03.057Z,17.64
2023-03-17T13:40:36.862Z,17.51
2023-03-17T13:43:13.865Z,17.15
2023-03-17T13:45:43.296Z,16.74
2023-03-17T13:48:28.381Z,16.61
2023-03-17T13:50:59.452Z,16.22
2023-03-17T13:53:30.342Z,16.09
2023-03-17T13:56:11.956Z,15.77
2023-03-17T13:58:53.558Z,15.77
2023-03-17T14:01:22.616Z,16.08
2023-03-17T14:03:53.925Z,16.07
2023-03-17T14:06:23.437Z,16.00
2023-03-17T14:08:54.965Z,15.66
2023-03-17T14:11:30.432Z,15.57
2023-03-17T14:14:15.224Z,15.41
2023-03-17T14:16:53.621Z,15.54
2023-03-17T14:19:26.979Z,15.43
2023-03-17T14:21:55.232Z,15.21
2023-03-17T14:24:26.435Z,15.22
2023-03-17T14:26:54.133Z,14.97
2023-03-17T14:29:27.519Z,14.73
2023-03-17T14:32:04.187Z,15.04
2023-03-17T14:34:33.158Z,14.88
2023-03-17T14:37:04.927Z,14.93
2023-03-17T14:39:33.879Z,14.68
2023-03-17T14:42:04.948Z,14.75
2023-03-17T14:44:39.037Z,14.70
2023-03-17T14:47:12.856Z,14.54
2023-03-17T14:49:40.728Z,14.44
2023-03-17T14:52:18.660Z,14.26
2023-03-17T14:54:51.001Z,14.11
2023-03-17T14:57:18.644Z,14.04
2023-03-17T14:59:57.429Z,13.95
2023-03-17T15:02:30.012Z,13.90
2023-03-17T15:04:59.386Z,13.90
2023-03-17T15:07:32.772Z,13.99
2023-03-17T15:10:02.859Z,14.09
2023-03-17T15:12:31.172Z,14.11
2023-03-17T15:15:01.180Z,14.11
2023-03-17T15:17:30.785Z,14.02
2023-03-17T15:20:02.001Z,14.09
2023-03-17T15:22:31.591Z,13.96
2023-03-17T15:25:02.657Z,14.07
2023-03-17T15:27:31.425Z,13.98
2023-03-17T15:29:59.253Z,13.69
2023-03-17T15:32:28.267Z,13.59
2023-03-17T15:34:57.889Z,13.74
2023-03-17T15:37:27.255Z,13.66
2023-03-17T15:39:57.967Z,13.74
2023-03-17T15:42:28.381Z,13.60
2023-03-17T15:44:56.210Z,13.57
2023-03-17T15:47:26.434Z,13.52
2023-03-17T15:49:58.574Z,13.60
2023-03-17T15:52:28.199Z,13.37
2023-03-17T15:54:58.107Z,13.43
2023-03-17T15:57:27.371Z,13.32
2023-03-17T15:59:55.109Z,13.41
2023-03-17T16:02:27.492Z,13.34
2023-03-17T16:04:55.714Z,13.34
2023-03-17T16:07:23.747Z,13.28
2023-03-17T16:09:51.357Z,13.14
2023-03-17T16:12:19.014Z,12.96
2023-03-17T16:14:48.264Z,12.95
2023-03-17T16:17:19.896Z,12.84
2023-03-17T16:19:47.918Z,12.81
2023-03-17T16:22:36.238Z,12.72
2023-03-17T16:25:05.739Z,12.59
2023-03-17T16:27:33.392Z,12.50
2023-03-17T16:30:02.492Z,12.37
2023-03-17T16:32:30.378Z,12.22
2023-03-17T16:34:57.984Z,12.22
2023-03-17T16:37:25.565Z,12.13
2023-03-17T16:39:53.628Z,11.94
2023-03-17T16:42:23.340Z,11.77
2023-03-17T16:44:51.591Z,11.61
2023-03-17T16:47:20.856Z,11.67
2023-03-17T16:49:48.466Z,11.48
2023-03-17T16:52:16.779Z,11.34
2023-03-17T16:54:44.387Z,11.21
2023-03-17T16:57:12.897Z,11.19
2023-03-17T16:59:40.537Z,11.10
2023-03-17T17:02:16.755Z,10.91
2023-03-17T17:04:45.683Z,10.69
2023-03-17T17:07:13.308Z,10.53
2023-03-17T17:09:40.955Z,10.29
2023-03-17T17:12:09.961Z,10.16
2023-03-17T17:14:37.589Z,9.99
2023-03-17T17:17:05.739Z,9.85
2023-03-17T17:19:33.378Z,9.73
2023-03-17T17:22:02.357Z,9.61
2023-03-17T17:24:29.937Z,9.45
2023-03-17T17:26:57.607Z,9.34
2023-03-17T17:29:25.473Z,9.45
2023-03-17T17:31:53.099Z,9.36
2023-03-17T17:34:20.716Z,9.27
2023-03-17T17:36:48.419Z,9.17
2023-03-17T17:39:17.578Z,8.96
2023-03-17T17:41:45.197Z,8.78
2023-03-17T17:44:13.043Z,8.67
2023-03-17T17:46:41.083Z,8.56
2023-03-17T17:49:08.789Z,8.42
2023-03-17T17:51:36.534Z,8.24
2023-03-17T17:54:04.248Z,8.10
2023-03-17T17:56:36.680Z,7.88
2023-03-17T17:59:04.492Z,7.68
2023-03-17T18:01:32.437Z,7.60
2023-03-17T18:04:00.095Z,7.47
2023-03-17T18:06:27.785Z,7.45
2023-03-17T18:08:56.526Z,7.39
2023-03-17T18:11:24.134Z,7.35
2023-03-17T18:13:53.078Z,7.29
2023-03-17T18:16:20.966Z,7.24
2023-03-17T18:18:48.633Z,7.20
2023-03-17T18:21:16.292Z,7.11
2023-03-17T18:23:47.136Z,7.03
2023-03-17T18:26:15.616Z,6.94
2023-03-17T18:28:43.618Z,6.90
2023-03-17T18:31:14.368Z,6.87
2023-03-17T18:33:42.554Z,6.89
2023-03-17T18:36:11.444Z,6.95
2023-03-17T18:38:39.549Z,7.17
2023-03-17T18:41:08.200Z,7.42
2023-03-17T18:43:36.068Z,7.63
2023-03-17T18:46:03.760Z,7.87
2023-03-17T18:48:32.828Z,7.95
2023-03-17T18:51:00.645Z,7.97
2023-03-17T18:53:30.675Z,8.10
2023-03-17T18:55:59.347Z,8.19
2023-03-17T18:58:27.251Z,8.16
2023-03-17T19:00:58.693Z,8.22
2023-03-17T19:03:27.347Z,8.06
2023-03-17T19:05:56.756Z,7.90
2023-03-17T19:08:24.638Z,7.77
2023-03-17T19:10:52.262Z,7.80
2023-03-17T19:13:19.873Z,7.77
2023-03-17T19:15:47.958Z,7.69
2023-03-17T19:18:16.158Z,7.69
2023-03-17T19:20:44.097Z,7.68
2023-03-17T19:23:13.138Z,7.65
2023-03-17T19:25:41.177Z,7.64
2023-03-17T19:28:08.982Z,7.58
2023-03-17T19:30:45.255Z,7.66
2023-03-17T19:33:13.201Z,7.53
2023-03-17T19:35:41.470Z,7.39
2023-03-17T19:38:09.240Z,7.27
2023-03-17T19:40:38.576Z,7.08
2023-03-17T19:43:07.263Z,6.95
2023-03-17T19:45:35.093Z,6.76
2023-03-17T19:48:02.717Z,6.64
2023-03-17T19:50:31.563Z,6.49
2023-03-17T19:52:59.571Z,6.47
2023-03-17T19:55:27.472Z,6.44
2023-03-17T19:57:57.035Z,6.44
2023-03-17T20:00:25.054Z,6.45
2023-03-17T20:02:53.201Z,6.28
2023-03-17T20:05:21.128Z,6.18
2023-03-17T20:07:49.013Z,6.04
2023-03-17T20:10:16.707Z,6.00
2023-03-17T20:12:45.773Z,5.89
2023-03-17T20:15:16.416Z,5.82
2023-03-17T20:17:44.424Z,5.72
2023-03-17T20:20:14.417Z,5.63
2023-03-17T20:22:43.609Z,5.59
2023-03-17T20:25:12.398Z,5.61
2023-03-17T20:27:40.315Z,5.55
2023-03-17T20:30:12.109Z,5.53
2023-03-17T20:32:41.227Z,5.53
2023-03-17T20:35:09.615Z,5.45
2023-03-17T20:37:37.333Z,5.39
2023-03-17T20:40:08.344Z,5.32
2023-03-17T20:42:36.423Z,5.28
2023-03-17T20:45:04.985Z,5.26
2023-03-17T20:47:32.811Z,5.19
2023-03-17T20:50:02.313Z,5.22
2023-03-17T20:52:30.568Z,5.20
2023-03-17T20:54:59.429Z,5.20
2023-03-17T20:57:27.660Z,5.19
2023-03-17T20:59:56.146Z,5.14
2023-03-17T21:02:24.021Z,5.16
2023-03-17T21:04:52.535Z,5.13
2023-03-17T21:07:22.470Z,5.11
2023-03-17T21:09:51.608Z,5.01
2023-03-17T21:12:21.638Z,5.00
2023-03-17T21:14:49.315Z,4.98
2023-03-17T21:17:17.972Z,4.95
2023-03-17T21:19:45.828Z,4.88
2023-03-17T21:22:13.489Z,4.83
2023-03-17T21:24:42.632Z,4.76
2023-03-17T21:27:11.360Z,4.71
2023-03-17T21:29:39.848Z,4.66
2023-03-17T21:32:08.429Z,4.65
2023-03-17T21:34:37.648Z,4.61
2023-03-17T21:37:05.690Z,4.58
2023-03-17T21:39:34.015Z,4.51
2023-03-17T21:42:03.704Z,4.53
2023-03-17T21:44:32.356Z,4.50
2023-03-17T21:47:02.547Z,4.44
2023-03-17T21:49:30.204Z,4.38
2023-03-17T21:51:57.862Z,4.37
2023-03-17T21:54:25.672Z,4.30
2023-03-17T21:56:53.446Z,4.30
2023-03-17T21:59:22.395Z,4.27
2023-03-17T22:01:51.991Z,4.25
2023-03-17T22:04:19.834Z,4.17
2023-03-17T22:06:47.452Z,4.12
2023-03-17T22:09:16.503Z,4.12
2023-03-17T22:11:45.806Z,4.04
2023-03-17T22:14:17.305Z,3.98
2023-03-17T22:16:46.487Z,4.00
2023-03-17T22:19:14.277Z,3.98
2023-03-17T22:21:42.188Z,3.88
2023-03-17T22:24:10.114Z,3.83
2023-03-17T22:26:37.975Z,3.84
2023-03-17T22:29:06.474Z,3.90
2023-03-17T22:31:34.800Z,3.88
2023-03-17T22:34:04.289Z,3.87
2023-03-17T22:36:32.206Z,3.74
2023-03-17T22:39:00.671Z,3.69
2023-03-17T22:41:30.157Z,3.69
2023-03-17T22:43:58.447Z,3.64
2023-03-17T22:46:27.261Z,3.56
2023-03-17T22:48:55.163Z,3.56
2023-03-17T22:51:26.638Z,3.46
2023-03-17T22:53:54.357Z,3.42
2023-03-17T22:56:22.147Z,3.25
2023-03-17T22:58:50.617Z,3.21
2023-03-17T23:01:19.125Z,3.08
2023-03-17T23:03:47.178Z,3.01
2023-03-17T23:06:15.528Z,2.96
2023-03-17T23:08:45.845Z,2.93
2023-03-17T23:11:16.032Z,2.86
2023-03-17T23:13:45.317Z,2.78
2023-03-17T23:16:13.595Z,2.77
2023-03-17T23:18:41.456Z,2.71
2023-03-17T23:21:10.271Z,2.64
2023-03-17T23:23:39.089Z,2.62
2023-03-17T23:26:11.522Z,2.57
2023-03-17T23:28:39.358Z,2.52
2023-03-17T23:31:07.019Z,2.47
2023-03-17T23:33:34.893Z,2.43
2023-03-17T23:36:02.611Z,2.44
2023-03-17T23:38:30.673Z,2.43
2023-03-17T23:40:58.481Z,2.42
2023-03-17T23:43:27.476Z,2.42
2023-03-17T23:45:55.547Z,2.39
2023-03-17T23:48:23.258Z,2.35
2023-03-17T23:50:52.708Z,2.28
2023-03-17T23:53:20.476Z,2.31
2023-03-17T23:55:48.403Z,2.21
2023-03-17T23:58:16.633Z,2.17
